Time,TemperatureF,DewpointF,PressureIn,WindDirection,WindDirectionDegrees,WindSpeedMPH,WindSpeedGustMPH,Humidity,HourlyPrecipIn,Conditions,Clouds,dailyrainin,SoftwareType,DateUTC
2013-02-10 00:14:00,33.9,24.0,29.86,North,351,5.0,7.0,67,0.00,,,0.00,weatherlink.com 1.10,2013-02-09 23:14:00,
2013-02-10 00:30:00,33.9,22.0,29.86,NNE,27,2.0,4.0,62,0.00,,,0.00,weatherlink.com 1.10,2013-02-09 23:30:00,
2013-02-10 00:45:00,33.9,20.0,29.86,NNE,25,3.0,5.0,56,0.00,,,0.00,weatherlink.com 1.10,2013-02-09 23:45:00,
2013-02-10 01:00:00,34.3,19.0,29.86,North,6,5.0,5.0,53,0.00,,,0.00,weatherlink.com 1.10,2013-02-10 00:00:00,
2013-02-10 01:15:00,34.1,19.0,29.86,NNE,15,5.0,6.0,55,0.00,,,0.00,weatherlink.com 1.10,2013-02-10 00:15:00,
2013-02-10 01:30:00,33.6,20.0,29.86,NNE,24,0.0,3.0,58,0.00,,,0.00,weatherlink.com 1.10,2013-02-10 00:30:00,
2013-02-10 01:45:00,33.1,20.0,29.86,NE,47,0.0,0.0,59,0.00,,,0.00,weatherlink.com 1.10,2013-02-10 00:45:00,
2013-02-10 02:00:00,32.7,20.0,29.86,NNE,29,0.0,1.0,61,0.00,,,0.00,weatherlink.com 1.10,2013-02-10 01:00:00,
2013-02-10 02:15:00,33.3,18.0,29.86,NE,49,2.0,3.0,53,0.00,,,0.00,weatherlink.com 1.10,2013-02-10 01:15:00,
2013-02-10 02:30:00,33.7,19.0,29.86,NE,41,2.0,2.0,55,0.00,,,0.00,weatherlink.com 1.10,2013-02-10 01:30:00,
2013-02-10 02:45:00,33.6,19.0,29.86,NE,39,2.0,2.0,55,0.00,,,0.00,weatherlink.com 1.10,2013-02-10 01:45:00,
2013-02-10 03:00:00,33.7,18.0,29.86,NE,41,2.0,3.0,54,0.00,,,0.00,weatherlink.com 1.10,2013-02-10 02:00:00,
2013-02-10 03:15:00,33.9,19.0,29.86,NE,41,1.0,2.0,55,0.00,,,0.00,weatherlink.com 1.10,2013-02-10 02:15:00,
2013-02-10 03:30:00,34.0,20.0,29.85,NE,50,2.0,3.0,56,0.00,,,0.00,weatherlink.com 1.10,2013-02-10 02:30:00,
2013-02-10 03:45:00,34.7,21.0,29.85,ENE,60,1.0,4.0,58,0.00,,,0.00,weatherlink.com 1.10,2013-02-10 02:45:00,
2013-02-10 04:00:00,34.1,21.0,29.84,NE,41,2.0,3.0,60,0.00,,,0.00,weatherlink.com 1.10,2013-02-10 03:00:00,
2013-02-10 04:15:00,34.2,21.0,29.84,NE,44,2.0,3.0,58,0.00,,,0.00,weatherlink.com 1.10,2013-02-10 03:15:00,
2013-02-10 04:30:00,34.6,20.0,29.85,NE,44,2.0,2.0,56,0.00,,,0.00,weatherlink.com 1.10,2013-02-10 03:30:00,
2013-02-10 04:45:00,33.8,20.0,29.85,NE,37,2.0,2.0,58,0.00,,,0.00,weatherlink.com 1.10,2013-02-10 03:45:00,
2013-02-10 05:00:00,33.4,22.0,29.85,NE,51,2.0,4.0,63,0.00,,,0.00,weatherlink.com 1.10,2013-02-10 04:00:00,
2013-02-10 05:15:00,33.4,22.0,29.85,ENE,68,1.0,3.0,63,0.00,,,0.00,weatherlink.com 1.10,2013-02-10 04:15:00,
2013-02-10 05:30:00,33.3,22.0,29.85,NE,51,2.0,4.0,64,0.00,,,0.00,weatherlink.com 1.10,2013-02-10 04:30:00,
2013-02-10 05:45:00,33.0,24.0,29.85,NE,44,2.0,3.0,70,0.00,,,0.00,weatherlink.com 1.10,2013-02-10 04:45:00,
2013-02-10 06:00:00,32.2,24.0,29.85,NE,37,3.0,3.0,72,0.00,,,0.00,weatherlink.com 1.10,2013-02-10 05:00:00,
2013-02-10 06:15:00,31.6,23.0,29.85,North,5,3.0,6.0,71,0.00,,,0.00,weatherlink.com 1.10,2013-02-10 05:15:00,
2013-02-10 06:30:00,31.4,24.0,29.85,NNE,32,3.0,7.0,74,0.00,,,0.00,weatherlink.com 1.10,2013-02-10 05:30:00,
2013-02-10 06:45:00,31.4,24.0,29.85,NNE,16,4.0,4.0,73,0.00,,,0.00,weatherlink.com 1.10,2013-02-10 05:45:00,
2013-02-10 07:00:00,31.3,22.0,29.86,NNE,29,5.0,5.0,68,0.00,,,0.00,weatherlink.com 1.10,2013-02-10 06:00:00,
2013-02-10 07:15:00,31.2,21.0,29.86,NNE,19,3.0,5.0,67,0.00,,,0.00,weatherlink.com 1.10,2013-02-10 06:15:00,
2013-02-10 07:30:00,31.0,20.0,29.87,NNE,19,4.0,5.0,65,0.00,,,0.00,weatherlink.com 1.10,2013-02-10 06:30:00,
2013-02-10 07:45:00,31.2,20.0,29.87,NNE,15,4.0,5.0,63,0.00,,,0.00,weatherlink.com 1.10,2013-02-10 06:45:00,
2013-02-10 08:00:00,32.4,21.0,29.88,NNE,22,4.0,4.0,63,0.00,,,0.00,weatherlink.com 1.10,2013-02-10 07:00:00,
2013-02-10 08:15:00,33.5,22.0,29.87,NNE,22,2.0,3.0,62,0.00,,,0.00,weatherlink.com 1.10,2013-02-10 07:15:00,
2013-02-10 08:30:00,35.1,21.0,29.88,NNE,15,1.0,3.0,58,0.00,,,0.00,weatherlink.com 1.10,2013-02-10 07:30:00,
2013-02-10 08:45:00,35.9,21.0,29.88,NNE,15,2.0,2.0,55,0.00,,,0.00,weatherlink.com 1.10,2013-02-10 07:45:00,
2013-02-10 09:01:00,36.8,18.0,29.88,NNE,25,0.0,3.0,46,0.00,,,0.00,weatherlink.com 1.10,2013-02-10 08:01:00,
2013-02-10 09:16:00,37.7,15.0,29.89,NNE,25,2.0,4.0,40,0.00,,,0.00,weatherlink.com 1.10,2013-02-10 08:16:00,
2013-02-10 09:31:00,37.8,15.0,29.89,NE,41,2.0,5.0,39,0.00,,,0.00,weatherlink.com 1.10,2013-02-10 08:31:00,
2013-02-10 09:46:00,38.4,16.0,29.89,NNE,12,2.0,5.0,40,0.00,,,0.00,weatherlink.com 1.10,2013-02-10 08:46:00,
2013-02-10 10:01:00,38.4,18.0,29.89,NW,316,5.0,6.0,43,0.00,,,0.00,weatherlink.com 1.10,2013-02-10 09:01:00,
2013-02-10 10:16:00,38.7,17.0,29.89,NE,39,3.0,4.0,42,0.00,,,0.00,weatherlink.com 1.10,2013-02-10 09:16:00,
2013-02-10 10:31:00,38.7,16.0,29.90,North,9,6.0,7.0,40,0.00,,,0.00,weatherlink.com 1.10,2013-02-10 09:31:00,
2013-02-10 10:46:00,38.9,19.0,29.90,NNE,26,3.0,7.0,45,0.00,,,0.00,weatherlink.com 1.10,2013-02-10 09:46:00,
2013-02-10 11:01:00,38.8,25.0,29.91,NW,304,3.0,8.0,57,0.00,,,0.00,weatherlink.com 1.10,2013-02-10 10:01:00,
2013-02-10 11:16:00,38.7,26.0,29.91,West,264,6.0,8.0,61,0.00,,,0.00,weatherlink.com 1.10,2013-02-10 10:16:00,
2013-02-10 11:31:00,39.0,26.0,29.91,WSW,239,1.0,9.0,59,0.00,,,0.00,weatherlink.com 1.10,2013-02-10 10:31:00,
2013-02-10 11:46:00,38.7,26.0,29.91,WNW,283,6.0,10.0,60,0.00,,,0.00,weatherlink.com 1.10,2013-02-10 10:46:00,
2013-02-10 12:01:00,38.7,26.0,29.91,NW,324,1.0,11.0,60,0.00,,,0.00,weatherlink.com 1.10,2013-02-10 11:01:00,
2013-02-10 12:16:00,38.5,25.0,29.91,North,9,5.0,10.0,58,0.00,,,0.00,weatherlink.com 1.10,2013-02-10 11:16:00,
2013-02-10 12:31:00,38.9,23.0,29.90,WNW,297,4.0,10.0,53,0.00,,,0.00,weatherlink.com 1.10,2013-02-10 11:31:00,
2013-02-10 12:46:00,38.9,22.0,29.91,WNW,286,5.0,13.0,52,0.00,,,0.00,weatherlink.com 1.10,2013-02-10 11:46:00,
2013-02-10 13:01:00,39.0,20.0,29.90,WNW,283,4.0,11.0,47,0.00,,,0.00,weatherlink.com 1.10,2013-02-10 12:01:00,
2013-02-10 13:16:00,39.4,21.0,29.90,NW,304,10.0,10.0,47,0.00,,,0.00,weatherlink.com 1.10,2013-02-10 12:16:00,
2013-02-10 13:31:00,39.6,21.0,29.90,NNW,346,5.0,11.0,48,0.00,,,0.00,weatherlink.com 1.10,2013-02-10 12:31:00,
2013-02-10 13:46:00,39.4,18.0,29.90,West,280,11.0,15.0,43,0.00,,,0.00,weatherlink.com 1.10,2013-02-10 12:46:00,
2013-02-10 14:01:00,39.5,17.0,29.90,NW,314,7.0,14.0,40,0.00,,,0.00,weatherlink.com 1.10,2013-02-10 13:01:00,
2013-02-10 14:16:00,39.9,13.0,29.90,West,276,8.0,13.0,34,0.00,,,0.00,weatherlink.com 1.10,2013-02-10 13:16:00,
2013-02-10 14:31:00,40.3,12.0,29.90,WNW,290,6.0,11.0,32,0.00,,,0.00,weatherlink.com 1.10,2013-02-10 13:31:00,
2013-02-10 14:46:00,40.5,14.0,29.90,NW,320,6.0,12.0,34,0.00,,,0.00,weatherlink.com 1.10,2013-02-10 13:46:00,
2013-02-10 15:01:00,40.6,13.0,29.90,West,276,9.0,11.0,32,0.00,,,0.00,weatherlink.com 1.10,2013-02-10 14:01:00,
2013-02-10 15:16:00,40.9,14.0,29.90,West,273,5.0,11.0,34,0.00,,,0.00,weatherlink.com 1.10,2013-02-10 14:16:00,
2013-02-10 15:31:00,41.1,15.0,29.90,NW,312,4.0,11.0,34,0.00,,,0.00,weatherlink.com 1.10,2013-02-10 14:31:00,
2013-02-10 15:46:00,40.7,14.0,29.90,NW,321,11.0,14.0,33,0.00,,,0.00,weatherlink.com 1.10,2013-02-10 14:46:00,
2013-02-10 16:01:00,40.4,13.0,29.91,WNW,290,6.0,10.0,33,0.00,,,0.00,weatherlink.com 1.10,2013-02-10 15:01:00,
2013-02-10 16:16:00,40.4,15.0,29.90,WNW,290,4.0,14.0,35,0.00,,,0.00,weatherlink.com 1.10,2013-02-10 15:16:00,
2013-02-10 16:31:00,40.5,14.0,29.90,NW,325,6.0,11.0,34,0.00,,,0.00,weatherlink.com 1.10,2013-02-10 15:31:00,
2013-02-10 16:46:00,40.1,15.0,29.91,NNW,348,4.0,10.0,36,0.00,,,0.00,weatherlink.com 1.10,2013-02-10 15:46:00,
2013-02-10 17:01:00,40.0,15.0,29.91,NW,304,4.0,9.0,37,0.00,,,0.00,weatherlink.com 1.10,2013-02-10 16:01:00,
2013-02-10 17:16:00,39.5,16.0,29.91,NW,315,5.0,9.0,39,0.00,,,0.00,weatherlink.com 1.10,2013-02-10 16:16:00,
2013-02-10 17:31:00,38.8,17.0,29.91,SW,231,3.0,10.0,41,0.00,,,0.00,weatherlink.com 1.10,2013-02-10 16:31:00,
2013-02-10 17:46:00,38.0,17.0,29.91,SSW,207,6.0,7.0,43,0.00,,,0.00,weatherlink.com 1.10,2013-02-10 16:46:00,
2013-02-10 18:01:00,37.5,17.0,29.92,ENE,72,2.0,6.0,43,0.00,,,0.00,weatherlink.com 1.10,2013-02-10 17:01:00,
2013-02-10 18:16:00,36.7,17.0,29.93,SW,233,2.0,5.0,45,0.00,,,0.00,weatherlink.com 1.10,2013-02-10 17:16:00,
2013-02-10 18:31:00,36.3,17.0,29.93,SW,226,0.0,4.0,46,0.00,,,0.00,weatherlink.com 1.10,2013-02-10 17:31:00,
2013-02-10 18:46:00,36.1,18.0,29.93,NNE,20,0.0,2.0,48,0.00,,,0.00,weatherlink.com 1.10,2013-02-10 17:46:00,
2013-02-10 19:01:00,35.8,16.0,29.93,East,90,2.0,3.0,45,0.00,,,0.00,weatherlink.com 1.10,2013-02-10 18:01:00,
2013-02-10 19:16:00,35.8,16.0,29.93,South,177,1.0,2.0,44,0.00,,,0.00,weatherlink.com 1.10,2013-02-10 18:16:00,
2013-02-10 19:31:00,35.3,16.0,29.93,East,100,0.0,1.0,46,0.00,,,0.00,weatherlink.com 1.10,2013-02-10 18:31:00,
2013-02-10 19:46:00,34.3,16.0,29.93,NE,43,0.0,2.0,48,0.00,,,0.00,weatherlink.com 1.10,2013-02-10 18:46:00,
2013-02-10 20:01:00,35.0,16.0,29.93,NE,51,2.0,6.0,46,0.00,,,0.00,weatherlink.com 1.10,2013-02-10 19:01:00,
2013-02-10 20:16:00,36.0,16.0,29.93,NE,34,5.0,7.0,44,0.00,,,0.00,weatherlink.com 1.10,2013-02-10 19:16:00,
2013-02-10 20:31:00,36.1,16.0,29.93,NNE,32,4.0,9.0,44,0.00,,,0.00,weatherlink.com 1.10,2013-02-10 19:31:00,
2013-02-10 20:46:00,36.2,16.0,29.93,ENE,58,2.0,7.0,44,0.00,,,0.00,weatherlink.com 1.10,2013-02-10 19:46:00,
2013-02-10 21:01:00,35.9,16.0,29.93,NE,39,2.0,3.0,45,0.00,,,0.00,weatherlink.com 1.10,2013-02-10 20:01:00,
2013-02-10 21:16:00,35.4,16.0,29.94,NNE,25,2.0,3.0,46,0.00,,,0.00,weatherlink.com 1.10,2013-02-10 20:16:00,
2013-02-10 21:31:00,34.9,16.0,29.93,NNE,17,4.0,5.0,47,0.00,,,0.00,weatherlink.com 1.10,2013-02-10 20:31:00,
2013-02-10 21:46:00,35.1,17.0,29.94,NNE,13,4.0,5.0,48,0.00,,,0.00,weatherlink.com 1.10,2013-02-10 20:46:00,
2013-02-10 22:01:00,34.5,17.0,29.94,NNE,19,4.0,4.0,49,0.00,,,0.00,weatherlink.com 1.10,2013-02-10 21:01:00,
2013-02-10 22:16:00,34.9,16.0,29.95,NNE,15,3.0,5.0,47,0.00,,,0.00,weatherlink.com 1.10,2013-02-10 21:16:00,
2013-02-10 22:31:00,35.2,17.0,29.95,NNE,22,2.0,4.0,47,0.00,,,0.00,weatherlink.com 1.10,2013-02-10 21:31:00,
2013-02-10 22:47:00,35.6,18.0,29.95,NNE,24,2.0,3.0,48,0.00,,,0.00,weatherlink.com 1.10,2013-02-10 21:47:00,
2013-02-10 23:02:00,35.7,17.0,29.95,NNE,25,1.0,2.0,47,0.00,,,0.00,weatherlink.com 1.10,2013-02-10 22:02:00,
2013-02-10 23:17:00,35.5,18.0,29.95,NNE,29,1.0,2.0,49,0.00,,,0.00,weatherlink.com 1.10,2013-02-10 22:17:00,
2013-02-10 23:32:00,35.6,18.0,29.95,ENE,61,0.0,1.0,49,0.00,,,0.00,weatherlink.com 1.10,2013-02-10 22:32:00,
2013-02-10 23:47:00,36.0,17.0,29.95,NE,51,1.0,2.0,47,0.00,,,0.00,weatherlink.com 1.10,2013-02-10 22:47:00,